sensor_id;sensor_type;location;lat;lon;timestamp;P1;durP1;ratioP1;P2;durP2;ratioP2
72388;SDS011;60566;48.062;9.930;2022-08-19T00:02:04;13.07;;;7.15;;
72388;SDS011;60566;48.062;9.930;2022-08-19T00:04:33;13.35;;;6.95;;
72388;SDS011;60566;48.062;9.930;2022-08-19T00:06:59;10.90;;;6.68;;
72388;SDS011;60566;48.062;9.930;2022-08-19T00:09:25;12.25;;;7.40;;
72388;SDS011;60566;48.062;9.930;2022-08-19T00:11:52;13.75;;;7.32;;
72388;SDS011;60566;48.062;9.930;2022-08-19T00:14:19;14.40;;;8.07;;
72388;SDS011;60566;48.062;9.930;2022-08-19T00:16:45;14.40;;;8.52;;
72388;SDS011;60566;48.062;9.930;2022-08-19T00:19:11;14.70;;;8.43;;
72388;SDS011;60566;48.062;9.930;2022-08-19T00:21:36;15.90;;;8.95;;
72388;SDS011;60566;48.062;9.930;2022-08-19T00:24:02;13.25;;;7.95;;
72388;SDS011;60566;48.062;9.930;2022-08-19T00:26:28;18.33;;;10.88;;
72388;SDS011;60566;48.062;9.930;2022-08-19T00:28:55;14.13;;;8.35;;
72388;SDS011;60566;48.062;9.930;2022-08-19T00:31:20;15.80;;;9.15;;
72388;SDS011;60566;48.062;9.930;2022-08-19T00:33:46;13.70;;;8.15;;
72388;SDS011;60566;48.062;9.930;2022-08-19T00:36:11;14.98;;;8.40;;
72388;SDS011;60566;48.062;9.930;2022-08-19T00:38:37;15.52;;;8.23;;
72388;SDS011;60566;48.062;9.930;2022-08-19T00:41:04;14.95;;;8.60;;
72388;SDS011;60566;48.062;9.930;2022-08-19T00:43:30;14.95;;;8.23;;
72388;SDS011;60566;48.062;9.930;2022-08-19T00:45:57;15.25;;;8.05;;
72388;SDS011;60566;48.062;9.930;2022-08-19T00:48:23;17.45;;;9.80;;
72388;SDS011;60566;48.062;9.930;2022-08-19T00:50:49;22.33;;;12.13;;
72388;SDS011;60566;48.062;9.930;2022-08-19T00:53:16;21.15;;;12.18;;
72388;SDS011;60566;48.062;9.930;2022-08-19T00:55:45;17.38;;;9.50;;
72388;SDS011;60566;48.062;9.930;2022-08-19T00:58:12;15.45;;;9.38;;
72388;SDS011;60566;48.062;9.930;2022-08-19T01:00:39;17.90;;;9.75;;
72388;SDS011;60566;48.062;9.930;2022-08-19T01:03:07;15.57;;;8.93;;
72388;SDS011;60566;48.062;9.930;2022-08-19T01:05:33;17.75;;;9.70;;
72388;SDS011;60566;48.062;9.930;2022-08-19T01:08:00;16.73;;;9.40;;
72388;SDS011;60566;48.062;9.930;2022-08-19T01:10:27;15.65;;;8.75;;
72388;SDS011;60566;48.062;9.930;2022-08-19T01:12:55;19.17;;;10.95;;
72388;SDS011;60566;48.062;9.930;2022-08-19T01:15:23;17.83;;;9.77;;
72388;SDS011;60566;48.062;9.930;2022-08-19T01:17:49;16.45;;;9.55;;
72388;SDS011;60566;48.062;9.930;2022-08-19T01:20:18;18.15;;;9.68;;
72388;SDS011;60566;48.062;9.930;2022-08-19T01:22:48;20.73;;;11.40;;
72388;SDS011;60566;48.062;9.930;2022-08-19T01:25:15;23.55;;;12.45;;
72388;SDS011;60566;48.062;9.930;2022-08-19T01:27:43;23.88;;;13.20;;
72388;SDS011;60566;48.062;9.930;2022-08-19T01:30:13;21.63;;;12.50;;
72388;SDS011;60566;48.062;9.930;2022-08-19T01:32:39;27.05;;;13.50;;
72388;SDS011;60566;48.062;9.930;2022-08-19T01:35:05;23.83;;;13.40;;
72388;SDS011;60566;48.062;9.930;2022-08-19T01:37:41;23.45;;;13.60;;
72388;SDS011;60566;48.062;9.930;2022-08-19T01:40:09;28.20;;;15.20;;
72388;SDS011;60566;48.062;9.930;2022-08-19T01:42:35;28.35;;;15.48;;
72388;SDS011;60566;48.062;9.930;2022-08-19T01:45:00;28.40;;;15.95;;
72388;SDS011;60566;48.062;9.930;2022-08-19T01:47:26;30.15;;;15.80;;
72388;SDS011;60566;48.062;9.930;2022-08-19T01:49:51;32.47;;;17.25;;
72388;SDS011;60566;48.062;9.930;2022-08-19T01:52:17;29.10;;;16.65;;
72388;SDS011;60566;48.062;9.930;2022-08-19T01:54:42;35.83;;;18.77;;
72388;SDS011;60566;48.062;9.930;2022-08-19T01:57:10;33.13;;;18.35;;
72388;SDS011;60566;48.062;9.930;2022-08-19T01:59:37;37.50;;;17.92;;
72388;SDS011;60566;48.062;9.930;2022-08-19T02:02:04;36.08;;;20.85;;
72388;SDS011;60566;48.062;9.930;2022-08-19T02:04:30;38.60;;;20.73;;
72388;SDS011;60566;48.062;9.930;2022-08-19T02:06:57;37.03;;;19.88;;
72388;SDS011;60566;48.062;9.930;2022-08-19T02:09:25;37.42;;;19.00;;
72388;SDS011;60566;48.062;9.930;2022-08-19T02:11:51;40.75;;;20.63;;
72388;SDS011;60566;48.062;9.930;2022-08-19T02:14:17;37.60;;;18.65;;
72388;SDS011;60566;48.062;9.930;2022-08-19T02:16:43;33.58;;;18.30;;
72388;SDS011;60566;48.062;9.930;2022-08-19T02:19:08;36.03;;;19.45;;
72388;SDS011;60566;48.062;9.930;2022-08-19T02:21:34;35.50;;;18.38;;
72388;SDS011;60566;48.062;9.930;2022-08-19T02:23:59;37.35;;;18.83;;
72388;SDS011;60566;48.062;9.930;2022-08-19T02:26:25;38.08;;;19.25;;
72388;SDS011;60566;48.062;9.930;2022-08-19T02:28:51;36.95;;;19.67;;
72388;SDS011;60566;48.062;9.930;2022-08-19T02:31:18;34.75;;;18.45;;
72388;SDS011;60566;48.062;9.930;2022-08-19T02:33:45;34.15;;;18.63;;
72388;SDS011;60566;48.062;9.930;2022-08-19T02:36:11;35.50;;;18.52;;
72388;SDS011;60566;48.062;9.930;2022-08-19T02:38:38;36.08;;;18.90;;
72388;SDS011;60566;48.062;9.930;2022-08-19T02:41:04;35.33;;;19.08;;
72388;SDS011;60566;48.062;9.930;2022-08-19T02:43:31;35.05;;;17.80;;
72388;SDS011;60566;48.062;9.930;2022-08-19T02:45:58;35.17;;;18.95;;
72388;SDS011;60566;48.062;9.930;2022-08-19T02:48:25;34.95;;;17.35;;
72388;SDS011;60566;48.062;9.930;2022-08-19T02:50:51;30.73;;;16.88;;
72388;SDS011;60566;48.062;9.930;2022-08-19T02:53:17;33.80;;;17.63;;
72388;SDS011;60566;48.062;9.930;2022-08-19T02:55:43;33.38;;;18.20;;
72388;SDS011;60566;48.062;9.930;2022-08-19T02:58:09;35.65;;;18.25;;
72388;SDS011;60566;48.062;9.930;2022-08-19T03:00:34;28.48;;;16.63;;
72388;SDS011;60566;48.062;9.930;2022-08-19T03:02:59;33.03;;;17.63;;
72388;SDS011;60566;48.062;9.930;2022-08-19T03:05:26;32.83;;;17.48;;
72388;SDS011;60566;48.062;9.930;2022-08-19T03:07:52;34.60;;;18.00;;
72388;SDS011;60566;48.062;9.930;2022-08-19T03:10:17;34.03;;;17.88;;
72388;SDS011;60566;48.062;9.930;2022-08-19T03:12:43;33.70;;;17.92;;
72388;SDS011;60566;48.062;9.930;2022-08-19T03:15:08;31.35;;;17.25;;
72388;SDS011;60566;48.062;9.930;2022-08-19T03:17:34;32.50;;;17.73;;
72388;SDS011;60566;48.062;9.930;2022-08-19T03:20:00;35.08;;;17.80;;
72388;SDS011;60566;48.062;9.930;2022-08-19T03:22:26;29.92;;;16.35;;
72388;SDS011;60566;48.062;9.930;2022-08-19T03:24:52;33.70;;;17.15;;
72388;SDS011;60566;48.062;9.930;2022-08-19T03:27:17;32.35;;;16.90;;
72388;SDS011;60566;48.062;9.930;2022-08-19T03:29:43;32.22;;;15.98;;
72388;SDS011;60566;48.062;9.930;2022-08-19T03:32:08;32.20;;;16.48;;
72388;SDS011;60566;48.062;9.930;2022-08-19T03:34:36;32.10;;;16.33;;
72388;SDS011;60566;48.062;9.930;2022-08-19T03:37:03;30.80;;;15.35;;
72388;SDS011;60566;48.062;9.930;2022-08-19T03:39:31;25.35;;;13.25;;
72388;SDS011;60566;48.062;9.930;2022-08-19T03:41:57;27.10;;;14.10;;
72388;SDS011;60566;48.062;9.930;2022-08-19T03:44:22;26.60;;;14.30;;
72388;SDS011;60566;48.062;9.930;2022-08-19T03:46:49;27.45;;;12.48;;
72388;SDS011;60566;48.062;9.930;2022-08-19T03:49:16;24.23;;;12.80;;
72388;SDS011;60566;48.062;9.930;2022-08-19T03:51:43;28.33;;;13.77;;
72388;SDS011;60566;48.062;9.930;2022-08-19T03:54:09;25.58;;;13.45;;
72388;SDS011;60566;48.062;9.930;2022-08-19T03:56:38;26.15;;;13.98;;
72388;SDS011;60566;48.062;9.930;2022-08-19T04:01:30;29.15;;;13.98;;
72388;SDS011;60566;48.062;9.930;2022-08-19T04:03:56;28.63;;;14.63;;
72388;SDS011;60566;48.062;9.930;2022-08-19T04:06:23;29.13;;;14.75;;
72388;SDS011;60566;48.062;9.930;2022-08-19T04:08:51;26.63;;;13.88;;
72388;SDS011;60566;48.062;9.930;2022-08-19T04:11:18;28.00;;;14.77;;
72388;SDS011;60566;48.062;9.930;2022-08-19T04:13:46;27.23;;;13.82;;
72388;SDS011;60566;48.062;9.930;2022-08-19T04:16:12;30.67;;;15.63;;
72388;SDS011;60566;48.062;9.930;2022-08-19T04:18:38;33.20;;;15.32;;
72388;SDS011;60566;48.062;9.930;2022-08-19T04:21:04;28.17;;;15.02;;
72388;SDS011;60566;48.062;9.930;2022-08-19T04:23:30;32.83;;;15.90;;
72388;SDS011;60566;48.062;9.930;2022-08-19T04:25:56;28.55;;;14.85;;
72388;SDS011;60566;48.062;9.930;2022-08-19T04:28:21;31.60;;;15.80;;
72388;SDS011;60566;48.062;9.930;2022-08-19T04:30:50;29.20;;;15.98;;
72388;SDS011;60566;48.062;9.930;2022-08-19T04:33:17;32.25;;;16.25;;
72388;SDS011;60566;48.062;9.930;2022-08-19T04:35:46;28.15;;;15.68;;
72388;SDS011;60566;48.062;9.930;2022-08-19T04:38:12;30.38;;;15.48;;
72388;SDS011;60566;48.062;9.930;2022-08-19T04:40:39;33.88;;;15.60;;
72388;SDS011;60566;48.062;9.930;2022-08-19T04:43:05;30.70;;;16.30;;
72388;SDS011;60566;48.062;9.930;2022-08-19T04:45:31;34.90;;;16.52;;
72388;SDS011;60566;48.062;9.930;2022-08-19T04:47:57;28.13;;;14.98;;
72388;SDS011;60566;48.062;9.930;2022-08-19T04:50:23;29.40;;;14.93;;
72388;SDS011;60566;48.062;9.930;2022-08-19T04:52:49;30.48;;;16.40;;
72388;SDS011;60566;48.062;9.930;2022-08-19T04:55:15;30.60;;;15.20;;
72388;SDS011;60566;48.062;9.930;2022-08-19T04:57:41;27.33;;;14.75;;
72388;SDS011;60566;48.062;9.930;2022-08-19T05:00:07;30.23;;;15.45;;
72388;SDS011;60566;48.062;9.930;2022-08-19T05:02:33;29.02;;;14.82;;
72388;SDS011;60566;48.062;9.930;2022-08-19T05:05:00;30.40;;;15.38;;
72388;SDS011;60566;48.062;9.930;2022-08-19T05:07:26;32.03;;;16.13;;
72388;SDS011;60566;48.062;9.930;2022-08-19T05:09:51;31.52;;;15.80;;
72388;SDS011;60566;48.062;9.930;2022-08-19T05:12:17;33.95;;;17.23;;
72388;SDS011;60566;48.062;9.930;2022-08-19T05:14:43;32.53;;;15.32;;
72388;SDS011;60566;48.062;9.930;2022-08-19T05:17:08;30.50;;;15.25;;
72388;SDS011;60566;48.062;9.930;2022-08-19T05:19:33;31.17;;;16.13;;
72388;SDS011;60566;48.062;9.930;2022-08-19T05:22:00;34.25;;;16.40;;
72388;SDS011;60566;48.062;9.930;2022-08-19T05:24:26;35.80;;;17.27;;
72388;SDS011;60566;48.062;9.930;2022-08-19T05:26:52;34.97;;;17.08;;
72388;SDS011;60566;48.062;9.930;2022-08-19T05:29:19;41.10;;;18.48;;
72388;SDS011;60566;48.062;9.930;2022-08-19T05:31:45;34.75;;;17.27;;
72388;SDS011;60566;48.062;9.930;2022-08-19T05:34:12;34.42;;;17.00;;
72388;SDS011;60566;48.062;9.930;2022-08-19T05:36:38;39.25;;;17.90;;
72388;SDS011;60566;48.062;9.930;2022-08-19T05:39:06;33.53;;;16.40;;
72388;SDS011;60566;48.062;9.930;2022-08-19T05:41:32;33.03;;;16.60;;
72388;SDS011;60566;48.062;9.930;2022-08-19T05:43:58;33.35;;;15.75;;
72388;SDS011;60566;48.062;9.930;2022-08-19T05:46:25;35.05;;;16.08;;
72388;SDS011;60566;48.062;9.930;2022-08-19T05:48:51;33.25;;;15.30;;
72388;SDS011;60566;48.062;9.930;2022-08-19T05:51:16;28.85;;;14.57;;
72388;SDS011;60566;48.062;9.930;2022-08-19T05:53:42;29.33;;;15.85;;
72388;SDS011;60566;48.062;9.930;2022-08-19T05:56:09;29.17;;;14.45;;
72388;SDS011;60566;48.062;9.930;2022-08-19T05:58:36;31.63;;;14.68;;
72388;SDS011;60566;48.062;9.930;2022-08-19T06:01:02;30.45;;;15.32;;
72388;SDS011;60566;48.062;9.930;2022-08-19T06:03:28;34.20;;;15.73;;
72388;SDS011;60566;48.062;9.930;2022-08-19T06:05:53;32.83;;;15.80;;
72388;SDS011;60566;48.062;9.930;2022-08-19T06:08:19;28.25;;;15.02;;
72388;SDS011;60566;48.062;9.930;2022-08-19T06:10:45;31.95;;;15.55;;
72388;SDS011;60566;48.062;9.930;2022-08-19T06:13:11;32.63;;;15.38;;
72388;SDS011;60566;48.062;9.930;2022-08-19T06:15:37;29.80;;;16.15;;
72388;SDS011;60566;48.062;9.930;2022-08-19T06:18:02;35.80;;;17.48;;
72388;SDS011;60566;48.062;9.930;2022-08-19T06:20:28;29.55;;;15.05;;
72388;SDS011;60566;48.062;9.930;2022-08-19T06:22:53;26.67;;;14.02;;
72388;SDS011;60566;48.062;9.930;2022-08-19T06:25:18;26.85;;;13.85;;
72388;SDS011;60566;48.062;9.930;2022-08-19T06:27:44;27.15;;;12.95;;
72388;SDS011;60566;48.062;9.930;2022-08-19T06:30:11;24.23;;;12.13;;
72388;SDS011;60566;48.062;9.930;2022-08-19T06:32:37;21.25;;;10.70;;
72388;SDS011;60566;48.062;9.930;2022-08-19T06:35:03;23.20;;;11.52;;
72388;SDS011;60566;48.062;9.930;2022-08-19T06:37:29;22.50;;;11.05;;
72388;SDS011;60566;48.062;9.930;2022-08-19T06:39:54;23.67;;;12.05;;
72388;SDS011;60566;48.062;9.930;2022-08-19T06:42:20;25.35;;;12.70;;
72388;SDS011;60566;48.062;9.930;2022-08-19T06:44:46;32.53;;;15.00;;
72388;SDS011;60566;48.062;9.930;2022-08-19T06:47:14;36.63;;;17.38;;
72388;SDS011;60566;48.062;9.930;2022-08-19T06:49:40;40.05;;;18.42;;
72388;SDS011;60566;48.062;9.930;2022-08-19T06:52:06;37.20;;;17.55;;
72388;SDS011;60566;48.062;9.930;2022-08-19T06:54:31;39.55;;;18.23;;
72388;SDS011;60566;48.062;9.930;2022-08-19T06:56:58;40.60;;;18.90;;
72388;SDS011;60566;48.062;9.930;2022-08-19T06:59:24;43.60;;;19.48;;
72388;SDS011;60566;48.062;9.930;2022-08-19T07:01:50;40.83;;;19.50;;
72388;SDS011;60566;48.062;9.930;2022-08-19T07:04:18;42.50;;;19.40;;
72388;SDS011;60566;48.062;9.930;2022-08-19T07:06:45;44.45;;;19.20;;
72388;SDS011;60566;48.062;9.930;2022-08-19T07:09:12;42.47;;;19.90;;
72388;SDS011;60566;48.062;9.930;2022-08-19T07:11:38;48.78;;;21.60;;
72388;SDS011;60566;48.062;9.930;2022-08-19T07:14:04;48.58;;;21.58;;
72388;SDS011;60566;48.062;9.930;2022-08-19T07:16:29;47.58;;;20.58;;
72388;SDS011;60566;48.062;9.930;2022-08-19T07:18:55;49.20;;;21.33;;
72388;SDS011;60566;48.062;9.930;2022-08-19T07:21:22;50.03;;;21.50;;
72388;SDS011;60566;48.062;9.930;2022-08-19T07:23:49;52.15;;;22.08;;
72388;SDS011;60566;48.062;9.930;2022-08-19T07:26:15;46.38;;;21.70;;
72388;SDS011;60566;48.062;9.930;2022-08-19T07:28:43;44.65;;;19.48;;
72388;SDS011;60566;48.062;9.930;2022-08-19T07:31:09;45.55;;;21.35;;
72388;SDS011;60566;48.062;9.930;2022-08-19T07:33:35;51.30;;;21.25;;
72388;SDS011;60566;48.062;9.930;2022-08-19T07:36:01;50.63;;;21.88;;
72388;SDS011;60566;48.062;9.930;2022-08-19T07:38:28;50.13;;;23.33;;
72388;SDS011;60566;48.062;9.930;2022-08-19T07:40:53;51.30;;;20.80;;
72388;SDS011;60566;48.062;9.930;2022-08-19T07:43:18;54.65;;;24.35;;
72388;SDS011;60566;48.062;9.930;2022-08-19T07:45:44;54.08;;;22.65;;
72388;SDS011;60566;48.062;9.930;2022-08-19T07:48:09;60.58;;;24.95;;
72388;SDS011;60566;48.062;9.930;2022-08-19T07:50:34;53.60;;;23.92;;
72388;SDS011;60566;48.062;9.930;2022-08-19T07:53:00;58.33;;;24.65;;
72388;SDS011;60566;48.062;9.930;2022-08-19T07:55:27;58.80;;;22.90;;
72388;SDS011;60566;48.062;9.930;2022-08-19T07:57:52;60.40;;;24.92;;
72388;SDS011;60566;48.062;9.930;2022-08-19T08:00:18;53.13;;;23.00;;
72388;SDS011;60566;48.062;9.930;2022-08-19T08:02:43;57.88;;;23.85;;
72388;SDS011;60566;48.062;9.930;2022-08-19T08:05:09;56.80;;;23.38;;
72388;SDS011;60566;48.062;9.930;2022-08-19T08:07:35;54.63;;;23.50;;
72388;SDS011;60566;48.062;9.930;2022-08-19T08:10:00;46.45;;;20.33;;
72388;SDS011;60566;48.062;9.930;2022-08-19T08:12:28;43.40;;;19.92;;
72388;SDS011;60566;48.062;9.930;2022-08-19T08:14:58;56.05;;;24.35;;
72388;SDS011;60566;48.062;9.930;2022-08-19T08:17:26;54.58;;;23.58;;
72388;SDS011;60566;48.062;9.930;2022-08-19T08:19:53;57.53;;;24.67;;
72388;SDS011;60566;48.062;9.930;2022-08-19T08:22:19;54.83;;;25.10;;
72388;SDS011;60566;48.062;9.930;2022-08-19T08:24:46;53.45;;;22.83;;
72388;SDS011;60566;48.062;9.930;2022-08-19T08:27:11;52.35;;;23.50;;
72388;SDS011;60566;48.062;9.930;2022-08-19T08:29:38;52.40;;;23.95;;
72388;SDS011;60566;48.062;9.930;2022-08-19T08:32:03;62.20;;;25.20;;
72388;SDS011;60566;48.062;9.930;2022-08-19T08:34:29;57.08;;;24.40;;
72388;SDS011;60566;48.062;9.930;2022-08-19T08:36:54;59.75;;;25.55;;
72388;SDS011;60566;48.062;9.930;2022-08-19T08:39:20;58.38;;;24.90;;
72388;SDS011;60566;48.062;9.930;2022-08-19T08:41:47;53.75;;;23.73;;
72388;SDS011;60566;48.062;9.930;2022-08-19T08:44:17;57.20;;;24.42;;
72388;SDS011;60566;48.062;9.930;2022-08-19T08:46:48;60.15;;;25.42;;
72388;SDS011;60566;48.062;9.930;2022-08-19T08:49:18;60.05;;;27.33;;
72388;SDS011;60566;48.062;9.930;2022-08-19T08:51:50;64.05;;;27.10;;
72388;SDS011;60566;48.062;9.930;2022-08-19T08:54:18;54.58;;;24.92;;
72388;SDS011;60566;48.062;9.930;2022-08-19T08:56:45;63.95;;;26.38;;
72388;SDS011;60566;48.062;9.930;2022-08-19T08:59:12;57.75;;;25.50;;
72388;SDS011;60566;48.062;9.930;2022-08-19T09:01:42;55.40;;;24.08;;
72388;SDS011;60566;48.062;9.930;2022-08-19T09:04:09;54.25;;;24.05;;
72388;SDS011;60566;48.062;9.930;2022-08-19T09:06:39;56.30;;;23.75;;
72388;SDS011;60566;48.062;9.930;2022-08-19T09:09:10;55.75;;;24.02;;
72388;SDS011;60566;48.062;9.930;2022-08-19T09:11:42;55.72;;;22.67;;
72388;SDS011;60566;48.062;9.930;2022-08-19T09:14:15;49.35;;;22.02;;
72388;SDS011;60566;48.062;9.930;2022-08-19T09:16:49;57.25;;;24.17;;
72388;SDS011;60566;48.062;9.930;2022-08-19T09:19:15;52.75;;;23.02;;
72388;SDS011;60566;48.062;9.930;2022-08-19T09:21:41;51.45;;;23.33;;
72388;SDS011;60566;48.062;9.930;2022-08-19T09:24:06;54.95;;;24.50;;
72388;SDS011;60566;48.062;9.930;2022-08-19T09:26:32;52.60;;;23.48;;
72388;SDS011;60566;48.062;9.930;2022-08-19T09:28:58;51.45;;;23.70;;
72388;SDS011;60566;48.062;9.930;2022-08-19T09:31:24;49.47;;;22.73;;
72388;SDS011;60566;48.062;9.930;2022-08-19T09:33:51;56.10;;;24.38;;
72388;SDS011;60566;48.062;9.930;2022-08-19T09:36:19;56.35;;;24.67;;
72388;SDS011;60566;48.062;9.930;2022-08-19T09:38:45;52.92;;;22.45;;
72388;SDS011;60566;48.062;9.930;2022-08-19T09:41:12;50.55;;;21.50;;
72388;SDS011;60566;48.062;9.930;2022-08-19T09:46:04;53.50;;;23.33;;
72388;SDS011;60566;48.062;9.930;2022-08-19T09:48:30;50.10;;;23.05;;
72388;SDS011;60566;48.062;9.930;2022-08-19T09:51:01;52.55;;;23.42;;
72388;SDS011;60566;48.062;9.930;2022-08-19T09:53:29;54.67;;;25.02;;
72388;SDS011;60566;48.062;9.930;2022-08-19T09:55:54;49.15;;;23.25;;
72388;SDS011;60566;48.062;9.930;2022-08-19T09:58:20;50.45;;;23.15;;
72388;SDS011;60566;48.062;9.930;2022-08-19T10:00:45;57.60;;;24.10;;
72388;SDS011;60566;48.062;9.930;2022-08-19T10:03:11;48.30;;;23.00;;
72388;SDS011;60566;48.062;9.930;2022-08-19T10:05:36;52.85;;;23.88;;
72388;SDS011;60566;48.062;9.930;2022-08-19T10:08:02;49.03;;;23.80;;
72388;SDS011;60566;48.062;9.930;2022-08-19T10:10:29;49.42;;;23.23;;
72388;SDS011;60566;48.062;9.930;2022-08-19T10:12:54;48.08;;;22.67;;
72388;SDS011;60566;48.062;9.930;2022-08-19T10:15:19;46.92;;;21.70;;
72388;SDS011;60566;48.062;9.930;2022-08-19T10:17:45;46.10;;;22.98;;
72388;SDS011;60566;48.062;9.930;2022-08-19T10:20:10;49.03;;;22.88;;
72388;SDS011;60566;48.062;9.930;2022-08-19T10:22:35;52.15;;;24.40;;
72388;SDS011;60566;48.062;9.930;2022-08-19T10:25:01;50.83;;;22.67;;
72388;SDS011;60566;48.062;9.930;2022-08-19T10:27:28;46.53;;;21.52;;
72388;SDS011;60566;48.062;9.930;2022-08-19T10:29:53;44.78;;;21.20;;
72388;SDS011;60566;48.062;9.930;2022-08-19T10:32:19;43.13;;;20.60;;
72388;SDS011;60566;48.062;9.930;2022-08-19T10:34:44;45.00;;;22.77;;
72388;SDS011;60566;48.062;9.930;2022-08-19T10:37:09;41.28;;;20.58;;
72388;SDS011;60566;48.062;9.930;2022-08-19T10:39:35;43.28;;;19.95;;
72388;SDS011;60566;48.062;9.930;2022-08-19T10:42:04;39.40;;;19.15;;
72388;SDS011;60566;48.062;9.930;2022-08-19T10:44:31;41.13;;;19.38;;
72388;SDS011;60566;48.062;9.930;2022-08-19T10:46:57;40.75;;;19.90;;
72388;SDS011;60566;48.062;9.930;2022-08-19T10:49:23;38.10;;;18.75;;
72388;SDS011;60566;48.062;9.930;2022-08-19T10:51:48;44.17;;;20.33;;
72388;SDS011;60566;48.062;9.930;2022-08-19T10:54:13;37.30;;;17.85;;
72388;SDS011;60566;48.062;9.930;2022-08-19T10:56:39;38.00;;;18.33;;
72388;SDS011;60566;48.062;9.930;2022-08-19T10:59:13;37.30;;;17.58;;
72388;SDS011;60566;48.062;9.930;2022-08-19T11:01:42;34.90;;;17.10;;
72388;SDS011;60566;48.062;9.930;2022-08-19T11:04:11;36.17;;;17.55;;
72388;SDS011;60566;48.062;9.930;2022-08-19T11:06:37;35.30;;;17.30;;
72388;SDS011;60566;48.062;9.930;2022-08-19T11:09:24;34.25;;;16.75;;
72388;SDS011;60566;48.062;9.930;2022-08-19T11:12:06;33.45;;;17.17;;
72388;SDS011;60566;48.062;9.930;2022-08-19T11:14:49;31.90;;;15.25;;
72388;SDS011;60566;48.062;9.930;2022-08-19T11:17:16;28.75;;;14.70;;
72388;SDS011;60566;48.062;9.930;2022-08-19T11:19:42;29.77;;;16.00;;
72388;SDS011;60566;48.062;9.930;2022-08-19T11:22:10;25.30;;;12.68;;
72388;SDS011;60566;48.062;9.930;2022-08-19T11:24:35;27.02;;;13.85;;
72388;SDS011;60566;48.062;9.930;2022-08-19T11:27:02;28.02;;;13.02;;
72388;SDS011;60566;48.062;9.930;2022-08-19T11:29:29;26.77;;;13.82;;
72388;SDS011;60566;48.062;9.930;2022-08-19T11:31:54;27.25;;;13.75;;
72388;SDS011;60566;48.062;9.930;2022-08-19T11:34:22;25.88;;;13.48;;
72388;SDS011;60566;48.062;9.930;2022-08-19T11:36:50;25.85;;;12.65;;
72388;SDS011;60566;48.062;9.930;2022-08-19T11:39:16;25.08;;;13.25;;
72388;SDS011;60566;48.062;9.930;2022-08-19T11:41:44;22.55;;;11.45;;
72388;SDS011;60566;48.062;9.930;2022-08-19T11:44:09;22.27;;;10.52;;
72388;SDS011;60566;48.062;9.930;2022-08-19T11:46:35;25.55;;;12.52;;
72388;SDS011;60566;48.062;9.930;2022-08-19T11:49:02;22.70;;;12.43;;
72388;SDS011;60566;48.062;9.930;2022-08-19T11:51:30;22.40;;;11.90;;
72388;SDS011;60566;48.062;9.930;2022-08-19T11:53:56;25.63;;;12.07;;
72388;SDS011;60566;48.062;9.930;2022-08-19T11:56:22;23.52;;;12.57;;
72388;SDS011;60566;48.062;9.930;2022-08-19T11:58:48;22.90;;;11.88;;
72388;SDS011;60566;48.062;9.930;2022-08-19T12:01:14;23.30;;;13.20;;
72388;SDS011;60566;48.062;9.930;2022-08-19T12:03:42;23.17;;;11.48;;
72388;SDS011;60566;48.062;9.930;2022-08-19T12:06:09;23.88;;;13.13;;
72388;SDS011;60566;48.062;9.930;2022-08-19T12:08:37;22.38;;;12.13;;
72388;SDS011;60566;48.062;9.930;2022-08-19T12:11:05;23.75;;;12.45;;
72388;SDS011;60566;48.062;9.930;2022-08-19T12:13:31;23.30;;;12.52;;
72388;SDS011;60566;48.062;9.930;2022-08-19T12:15:57;24.83;;;12.80;;
72388;SDS011;60566;48.062;9.930;2022-08-19T12:18:22;21.15;;;9.98;;
72388;SDS011;60566;48.062;9.930;2022-08-19T12:20:50;24.95;;;12.18;;
72388;SDS011;60566;48.062;9.930;2022-08-19T12:25:45;19.70;;;10.93;;
72388;SDS011;60566;48.062;9.930;2022-08-19T12:28:11;20.88;;;10.80;;
72388;SDS011;60566;48.062;9.930;2022-08-19T12:30:37;21.50;;;11.57;;
72388;SDS011;60566;48.062;9.930;2022-08-19T12:33:02;23.52;;;11.32;;
72388;SDS011;60566;48.062;9.930;2022-08-19T12:35:27;25.77;;;12.57;;
72388;SDS011;60566;48.062;9.930;2022-08-19T12:37:53;21.60;;;11.38;;
72388;SDS011;60566;48.062;9.930;2022-08-19T12:40:18;22.60;;;11.80;;
72388;SDS011;60566;48.062;9.930;2022-08-19T12:42:45;23.83;;;12.32;;
72388;SDS011;60566;48.062;9.930;2022-08-19T12:45:11;22.63;;;11.45;;
72388;SDS011;60566;48.062;9.930;2022-08-19T12:47:37;28.52;;;12.85;;
72388;SDS011;60566;48.062;9.930;2022-08-19T12:50:03;22.15;;;11.65;;
72388;SDS011;60566;48.062;9.930;2022-08-19T12:52:29;25.33;;;12.45;;
72388;SDS011;60566;48.062;9.930;2022-08-19T12:54:55;24.90;;;13.82;;
72388;SDS011;60566;48.062;9.930;2022-08-19T12:57:21;23.42;;;13.20;;
72388;SDS011;60566;48.062;9.930;2022-08-19T12:59:51;25.25;;;13.40;;
72388;SDS011;60566;48.062;9.930;2022-08-19T13:02:16;28.05;;;14.07;;
72388;SDS011;60566;48.062;9.930;2022-08-19T13:04:42;23.20;;;11.73;;
72388;SDS011;60566;48.062;9.930;2022-08-19T13:07:07;27.00;;;12.85;;
72388;SDS011;60566;48.062;9.930;2022-08-19T13:09:33;22.08;;;12.10;;
72388;SDS011;60566;48.062;9.930;2022-08-19T13:11:58;24.85;;;12.45;;
72388;SDS011;60566;48.062;9.930;2022-08-19T13:14:24;25.52;;;14.60;;
72388;SDS011;60566;48.062;9.930;2022-08-19T13:16:50;27.33;;;13.82;;
72388;SDS011;60566;48.062;9.930;2022-08-19T13:19:16;26.02;;;13.40;;
72388;SDS011;60566;48.062;9.930;2022-08-19T13:21:41;27.33;;;13.30;;
72388;SDS011;60566;48.062;9.930;2022-08-19T13:24:06;25.70;;;13.63;;
72388;SDS011;60566;48.062;9.930;2022-08-19T13:26:32;25.52;;;13.30;;
72388;SDS011;60566;48.062;9.930;2022-08-19T13:28:57;27.67;;;15.07;;
72388;SDS011;60566;48.062;9.930;2022-08-19T13:31:23;29.02;;;15.13;;
72388;SDS011;60566;48.062;9.930;2022-08-19T13:33:51;25.17;;;13.90;;
72388;SDS011;60566;48.062;9.930;2022-08-19T13:36:16;30.65;;;14.18;;
72388;SDS011;60566;48.062;9.930;2022-08-19T13:38:42;25.52;;;13.95;;
72388;SDS011;60566;48.062;9.930;2022-08-19T13:41:07;26.38;;;13.60;;
72388;SDS011;60566;48.062;9.930;2022-08-19T13:43:32;18.42;;;9.75;;
72388;SDS011;60566;48.062;9.930;2022-08-19T13:45:58;20.73;;;10.38;;
72388;SDS011;60566;48.062;9.930;2022-08-19T13:48:23;20.67;;;9.23;;
72388;SDS011;60566;48.062;9.930;2022-08-19T13:50:51;16.23;;;8.40;;
72388;SDS011;60566;48.062;9.930;2022-08-19T13:53:16;15.32;;;8.63;;
72388;SDS011;60566;48.062;9.930;2022-08-19T13:55:42;16.30;;;8.68;;
72388;SDS011;60566;48.062;9.930;2022-08-19T13:58:09;13.20;;;6.80;;
72388;SDS011;60566;48.062;9.930;2022-08-19T14:00:36;16.60;;;7.32;;
72388;SDS011;60566;48.062;9.930;2022-08-19T14:03:03;12.55;;;6.95;;
72388;SDS011;60566;48.062;9.930;2022-08-19T14:05:29;17.75;;;7.82;;
72388;SDS011;60566;48.062;9.930;2022-08-19T14:07:56;14.40;;;7.15;;
72388;SDS011;60566;48.062;9.930;2022-08-19T14:10:22;15.15;;;8.93;;
72388;SDS011;60566;48.062;9.930;2022-08-19T14:12:49;17.05;;;7.53;;
72388;SDS011;60566;48.062;9.930;2022-08-19T14:15:14;17.70;;;8.52;;
72388;SDS011;60566;48.062;9.930;2022-08-19T14:17:41;18.40;;;9.38;;
72388;SDS011;60566;48.062;9.930;2022-08-19T14:20:08;16.08;;;8.82;;
72388;SDS011;60566;48.062;9.930;2022-08-19T14:22:38;15.75;;;8.73;;
72388;SDS011;60566;48.062;9.930;2022-08-19T14:25:07;15.85;;;9.00;;
72388;SDS011;60566;48.062;9.930;2022-08-19T14:27:34;19.67;;;9.60;;